Time;durP1;ratioP1;P1;durP2;ratioP2;P2;SDS_P1;SDS_P2;PMS_P1;PMS_P2;Temp;Humidity;BMP_temperature;BMP_pressure;BME280_temperature;BME280_humidity;BME280_pressure;Samples;Min_cycle;Max_cycle;Signal;HPM_P1;HPM_P2
2022/09/27 00:03:45;;;;;;;2.37;1.90;;;;;;;;;;13035087;22;20058;-84
2022/09/27 00:08:45;;;;;;;2.42;1.63;;;;;;;;;;13032883;22;20042;-85
2022/09/27 00:13:51;;;;;;;3.30;2.30;;;;;;;;;;13036690;22;20459;-85
2022/09/27 00:18:52;;;;;;;3.15;1.92;;;;;;;;;;12998895;22;20118;-83
2022/09/27 00:23:53;;;;;;;2.70;2.13;;;;;;;;;;12985873;22;20066;-83
2022/09/27 00:28:56;;;;;;;3.03;2.30;;;;;;;;;;12985345;22;20340;-82
2022/09/27 00:33:58;;;;;;;4.15;2.50;;;;;;;;;;12991524;22;20023;-84
2022/09/27 00:38:59;;;;;;;3.20;2.47;;;;;;;;;;13004089;22;20011;-83
2022/09/27 00:44:04;;;;;;;3.63;2.85;;;;;;;;;;12989334;22;20008;-83
2022/09/27 00:49:05;;;;;;;4.10;2.80;;;;;;;;;;13009456;22;20012;-86
2022/09/27 00:54:11;;;;;;;3.28;2.30;;;;;;;;;;13042484;22;20012;-87
2022/09/27 00:59:17;;;;;;;3.50;2.25;;;;;;;;;;12976185;22;20075;-84
2022/09/27 01:04:23;;;;;;;3.10;1.95;;;;;;;;;;13044110;22;19996;-86
2022/09/27 01:09:23;;;;;;;2.23;1.70;;;;;;;;;;13040512;22;20034;-84
2022/09/27 01:14:44;;;;;;;2.05;1.52;;;;;;;;;;13004829;22;20046;-83
2022/09/27 01:19:56;;;;;;;1.80;1.50;;;;;;;;;;12997234;22;20435;-79
2022/09/27 01:25:12;;;;;;;3.58;1.30;;;;;;;;;;13026499;22;20015;-80
2022/09/27 01:30:23;;;;;;;2.10;1.40;;;;;;;;;;13039573;22;20003;-83
2022/09/27 01:35:44;;;;;;;2.35;1.40;;;;;;;;;;12998531;22;20054;-84
2022/09/27 01:40:56;;;;;;;1.33;1.23;;;;;;;;;;12991818;22;20011;-82
2022/09/27 01:46:38;;;;;;;1.52;1.40;;;;;;;;;;12982996;22;20020;-82
2022/09/27 01:52:06;;;;;;;2.28;1.50;;;;;;;;;;12978344;22;20031;-81
2022/09/27 01:57:09;;;;;;;1.70;1.50;;;;;;;;;;12955012;22;20008;-80
2022/09/27 02:02:15;;;;;;;2.15;1.38;;;;;;;;;;12956738;22;20011;-83
2022/09/27 02:07:55;;;;;;;2.33;1.20;;;;;;;;;;12942039;22;20141;-83
2022/09/27 02:13:15;;;;;;;1.40;1.30;;;;;;;;;;13002555;22;20030;-81
2022/09/27 02:18:19;;;;;;;1.50;1.00;;;;;;;;;;12989427;22;20038;-81
2022/09/27 02:23:40;;;;;;;1.38;1.15;;;;;;;;;;12984565;22;20011;-81
2022/09/27 02:28:45;;;;;;;;;;;;;;;;;;12979867;22;20038;-81
2022/09/27 02:33:53;;;;;;;2.70;1.20;;;;;;;;;;12958076;22;19926;-81
2022/09/27 02:38:57;;;;;;;3.07;1.53;;;;;;;;;;12983912;22;20065;-82
2022/09/27 02:44:01;;;;;;;2.30;1.90;;;;;;;;;;12978604;22;20022;-83
2022/09/27 02:49:10;;;;;;;3.08;1.38;;;;;;;;;;12979467;22;20027;-84
2022/09/27 02:54:20;;;;;;;3.78;1.30;;;;;;;;;;12995767;22;20075;-84
2022/09/27 02:59:54;;;;;;;3.30;1.30;;;;;;;;;;13029277;22;20019;-88
2022/09/27 03:05:14;;;;;;;2.78;1.30;;;;;;;;;;12988237;22;20038;-82
2022/09/27 03:10:17;;;;;;;1.77;1.30;;;;;;;;;;12953514;22;20331;-83
2022/09/27 03:15:18;;;;;;;2.13;1.30;;;;;;;;;;12981786;22;20015;-89
2022/09/27 03:20:37;;;;;;;1.55;1.40;;;;;;;;;;12998127;22;20019;-89
2022/09/27 03:25:46;;;;;;;1.67;1.27;;;;;;;;;;13009705;22;20095;-89
2022/09/27 03:30:49;;;;;;;3.25;1.52;;;;;;;;;;13004276;22;20004;-88
2022/09/27 03:36:17;;;;;;;1.30;1.20;;;;;;;;;;12970777;22;20084;-81
2022/09/27 03:41:20;;;;;;;1.77;1.42;;;;;;;;;;13013520;22;20014;-88
2022/09/27 03:46:21;;;;;;;;;;;;;;;;;;12980521;22;20016;-89
2022/09/27 03:51:26;;;;;;;2.15;1.55;;;;;;;;;;13022259;22;19969;-92
2022/09/27 03:56:26;;;;;;;1.50;1.30;;;;;;;;;;12972934;22;20015;-82
2022/09/27 04:01:37;;;;;;;2.38;1.60;;;;;;;;;;12978322;22;20088;-82
2022/09/27 04:06:56;;;;;;;2.42;1.25;;;;;;;;;;12975477;22;20089;-79
2022/09/27 04:11:57;;;;;;;2.30;1.50;;;;;;;;;;12975472;22;20027;-80
2022/09/27 04:16:57;;;;;;;2.15;1.52;;;;;;;;;;12977290;22;20011;-81
2022/09/27 04:22:14;;;;;;;2.33;1.33;;;;;;;;;;13006964;22;19996;-84
2022/09/27 04:27:16;;;;;;;;;;;;;;;;;;13039080;22;20006;-82
2022/09/27 04:32:17;;;;;;;5.88;3.40;;;;;;;;;;13034809;22;19914;-80
2022/09/27 04:37:44;;;;;;;1.65;1.10;;;;;;;;;;12987468;22;20078;-81
2022/09/27 04:42:45;;;;;;;2.80;1.55;;;;;;;;;;12965508;22;20050;-84
2022/09/27 04:47:47;;;;;;;3.53;1.75;;;;;;;;;;12967202;22;20000;-80
2022/09/27 04:52:51;;;;;;;3.03;1.60;;;;;;;;;;12998372;22;20027;-82
2022/09/27 04:57:52;;;;;;;3.85;1.60;;;;;;;;;;12986321;22;20436;-83
2022/09/27 05:02:52;;;;;;;5.55;1.67;;;;;;;;;;12980179;22;20035;-82
2022/09/27 05:08:11;;;;;;;2.63;1.60;;;;;;;;;;12944735;22;20087;-81
2022/09/27 05:13:40;;;;;;;4.05;1.83;;;;;;;;;;12982724;22;20050;-81
2022/09/27 05:18:42;;;;;;;3.97;1.63;;;;;;;;;;12980373;22;20443;-78
2022/09/27 05:24:04;;;;;;;2.55;1.70;;;;;;;;;;12985352;22;20019;-85
2022/09/27 05:29:05;;;;;;;;;;;;;;;;;;12979814;22;20470;-80
2022/09/27 05:34:07;;;;;;;2.97;1.65;;;;;;;;;;12980403;22;19943;-83
2022/09/27 05:39:16;;;;;;;3.70;1.70;;;;;;;;;;12983197;22;20015;-82
2022/09/27 05:44:17;;;;;;;5.88;3.00;;;;;;;;;;12981914;22;20102;-85
2022/09/27 05:49:31;;;;;;;3.50;1.70;;;;;;;;;;12986058;22;20035;-85
2022/09/27 05:54:34;;;;;;;3.45;1.88;;;;;;;;;;12957011;22;20032;-83
2022/09/27 05:59:34;;;;;;;3.03;1.98;;;;;;;;;;12980284;22;20098;-86
2022/09/27 06:04:53;;;;;;;5.57;2.00;;;;;;;;;;12991075;22;20215;-82
2022/09/27 06:10:12;;;;;;;5.07;1.98;;;;;;;;;;12980973;22;20015;-82
2022/09/27 06:15:16;;;;;;;5.05;2.45;;;;;;;;;;12980298;22;20526;-80
2022/09/27 06:20:19;;;;;;;4.87;2.60;;;;;;;;;;12979301;22;20019;-79
2022/09/27 06:25:20;;;;;;;3.70;2.40;;;;;;;;;;13000765;22;20043;-80
2022/09/27 06:30:40;;;;;;;3.03;2.72;;;;;;;;;;12978589;22;20343;-80
2022/09/27 06:35:48;;;;;;;4.05;2.17;;;;;;;;;;12977300;22;20019;-80
2022/09/27 06:40:59;;;;;;;1.67;1.42;;;;;;;;;;12980908;22;20039;-83
2022/09/27 06:46:18;;;;;;;2.92;1.70;;;;;;;;;;12980398;22;20015;-80
2022/09/27 06:51:32;;;;;;;;;;;;;;;;;;12988016;22;20030;-82
2022/09/27 06:56:33;;;;;;;2.25;1.30;;;;;;;;;;12979939;22;20256;-78
2022/09/27 07:01:35;;;;;;;2.97;1.52;;;;;;;;;;12976635;22;20029;-80
2022/09/27 07:06:44;;;;;;;1.23;1.10;;;;;;;;;;12979325;22;20019;-78
2022/09/27 07:11:56;;;;;;;1.80;1.13;;;;;;;;;;12976498;22;20059;-80
2022/09/27 07:16:58;;;;;;;1.20;1.10;;;;;;;;;;12980388;22;20012;-81
2022/09/27 07:22:03;;;;;;;1.50;1.13;;;;;;;;;;12992182;22;20026;-81
2022/09/27 07:27:05;;;;;;;1.55;1.10;;;;;;;;;;13028375;22;20012;-79
2022/09/27 07:32:05;;;;;;;2.58;2.33;;;;;;;;;;13006877;22;20113;-77
2022/09/27 07:37:07;;;;;;;1.20;1.10;;;;;;;;;;12980567;22;20074;-81
2022/09/27 07:42:12;;;;;;;1.42;0.90;;;;;;;;;;12952733;22;20321;-81
2022/09/27 07:47:18;;;;;;;4.97;3.25;;;;;;;;;;12977409;22;20034;-81
2022/09/27 07:52:40;;;;;;;2.00;1.40;;;;;;;;;;12978254;22;20615;-82
2022/09/27 07:58:05;;;;;;;4.20;2.72;;;;;;;;;;12981340;22;20028;-81
2022/09/27 08:03:09;;;;;;;1.75;1.10;;;;;;;;;;12984294;22;20023;-80
2022/09/27 08:08:09;;;;;;;1.75;1.45;;;;;;;;;;12976254;22;20019;-79
2022/09/27 08:13:11;;;;;;;2.47;1.25;;;;;;;;;;12976163;22;20028;-81
2022/09/27 08:18:11;;;;;;;0.93;0.82;;;;;;;;;;12976100;22;20023;-83
2022/09/27 08:23:27;;;;;;;2.00;1.00;;;;;;;;;;12954049;22;20318;-81
2022/09/27 08:29:02;;;;;;;1.50;1.10;;;;;;;;;;12958117;22;20713;-84
2022/09/27 08:34:06;;;;;;;1.40;1.10;;;;;;;;;;12956105;22;20027;-82
2022/09/27 08:39:08;;;;;;;1.10;1.00;;;;;;;;;;12953176;22;20020;-82
2022/09/27 08:44:20;;;;;;;1.00;0.90;;;;;;;;;;12976665;22;20022;-79
2022/09/27 08:49:37;;;;;;;3.22;0.98;;;;;;;;;;12974999;22;20309;-80
2022/09/27 08:54:38;;;;;;;1.27;1.08;;;;;;;;;;12980499;22;20027;-80
2022/09/27 08:59:45;;;;;;;1.20;1.10;;;;;;;;;;12988334;22;20094;-81
2022/09/27 09:04:49;;;;;;;1.10;1.00;;;;;;;;;;12987449;22;20087;-80
2022/09/27 09:10:08;;;;;;;1.30;1.20;;;;;;;;;;12981483;22;20012;-80
2022/09/27 09:15:16;;;;;;;11.38;7.82;;;;;;;;;;12981620;22;20050;-78
2022/09/27 09:20:24;;;;;;;1.55;1.10;;;;;;;;;;12983450;22;20070;-79
2022/09/27 09:25:38;;;;;;;1.35;0.95;;;;;;;;;;12957353;22;20012;-83
2022/09/27 09:30:48;;;;;;;1.10;1.00;;;;;;;;;;12982570;22;20019;-81
2022/09/27 09:35:49;;;;;;;2.00;1.52;;;;;;;;;;12944696;22;1222378;-81
2022/09/27 09:40:56;;;;;;;1.30;0.93;;;;;;;;;;13021389;22;20012;-80
2022/09/27 09:46:16;;;;;;;0.70;0.70;;;;;;;;;;12998394;22;20031;-82
2022/09/27 09:51:22;;;;;;;2.53;0.90;;;;;;;;;;12953464;22;20305;-83
2022/09/27 09:56:25;;;;;;;1.42;0.90;;;;;;;;;;12982182;22;20395;-79
2022/09/27 10:01:27;;;;;;;1.63;0.90;;;;;;;;;;12983313;22;20035;-81
2022/09/27 10:06:29;;;;;;;1.27;1.10;;;;;;;;;;12987260;22;20023;-81
2022/09/27 10:11:41;;;;;;;0.90;0.87;;;;;;;;;;12986751;22;20121;-79
2022/09/27 10:16:56;;;;;;;0.85;0.85;;;;;;;;;;13008278;22;20046;-79
2022/09/27 10:22:11;;;;;;;2.22;0.80;;;;;;;;;;13018897;22;20035;-79
2022/09/27 10:27:11;;;;;;;0.88;0.70;;;;;;;;;;13019242;22;20512;-81
2022/09/27 10:32:24;;;;;;;0.75;0.63;;;;;;;;;;12982922;22;20027;-80
2022/09/27 10:37:33;;;;;;;2.50;1.52;;;;;;;;;;12982574;22;20018;-79
2022/09/27 10:42:43;;;;;;;4.75;2.58;;;;;;;;;;12958565;22;20051;-81
2022/09/27 10:47:45;;;;;;;2.22;1.42;;;;;;;;;;12982393;22;20129;-82
2022/09/27 10:53:18;;;;;;;1.30;0.90;;;;;;;;;;12973519;22;20102;-81
2022/09/27 10:58:29;;;;;;;1.20;1.10;;;;;;;;;;12978032;22;20059;-78
2022/09/27 11:03:31;;;;;;;1.67;1.30;;;;;;;;;;12977840;22;20039;-80
2022/09/27 11:08:34;;;;;;;1.52;1.00;;;;;;;;;;12977224;22;20012;-82
2022/09/27 11:13:58;;;;;;;2.13;1.10;;;;;;;;;;12980349;22;20016;-77
2022/09/27 11:19:08;;;;;;;8.23;4.93;;;;;;;;;;12976081;22;20012;-77
2022/09/27 11:24:15;;;;;;;2.15;1.15;;;;;;;;;;12951545;22;20110;-78
2022/09/27 11:29:27;;;;;;;1.95;0.80;;;;;;;;;;12977647;22;20321;-80
2022/09/27 11:34:46;;;;;;;1.50;0.80;;;;;;;;;;12975581;22;20035;-80
2022/09/27 11:39:59;;;;;;;1.00;0.85;;;;;;;;;;12980695;22;20097;-79
2022/09/27 11:45:17;;;;;;;2.08;1.00;;;;;;;;;;12936514;22;20015;-81
2022/09/27 11:50:18;;;;;;;0.68;0.68;;;;;;;;;;12976370;22;20432;-79
2022/09/27 11:55:33;;;;;;;1.48;0.80;;;;;;;;;;12950380;22;20016;-80
2022/09/27 12:00:54;;;;;;;0.65;0.60;;;;;;;;;;12953111;22;20058;-78
2022/09/27 12:05:58;;;;;;;1.40;0.98;;;;;;;;;;12979034;22;20023;-81
2022/09/27 12:11:08;;;;;;;1.63;0.93;;;;;;;;;;12982374;22;20278;-80
2022/09/27 12:16:11;;;;;;;1.40;0.80;;;;;;;;;;12987961;22;20031;-81
2022/09/27 12:21:12;;;;;;;1.45;0.90;;;;;;;;;;12982237;22;20012;-77
2022/09/27 12:26:22;;;;;;;1.58;1.15;;;;;;;;;;12979517;22;20004;-77
2022/09/27 12:31:30;;;;;;;1.20;1.10;;;;;;;;;;12954716;22;20134;-76
2022/09/27 12:36:34;;;;;;;1.42;1.02;;;;;;;;;;12979527;22;20047;-78
2022/09/27 12:41:37;;;;;;;0.98;0.90;;;;;;;;;;12979808;22;20054;-78
2022/09/27 12:47:11;;;;;;;2.28;0.98;;;;;;;;;;12979849;22;20094;-78
2022/09/27 12:52:14;;;;;;;2.65;2.15;;;;;;;;;;12984772;22;20055;-77
2022/09/27 12:57:15;;;;;;;;;;;;;;;;;;12985125;22;20019;-80
2022/09/27 13:02:15;;;;;;;6.60;4.07;;;;;;;;;;12980997;22;19911;-80
2022/09/27 13:07:21;;;;;;;2.17;1.63;;;;;;;;;;12976818;22;20329;-79
2022/09/27 13:12:25;;;;;;;2.45;1.48;;;;;;;;;;12974939;22;20019;-78
2022/09/27 13:17:42;;;;;;;1.88;1.42;;;;;;;;;;12976275;22;20088;-78
2022/09/27 13:22:47;;;;;;;1.92;1.17;;;;;;;;;;12975063;22;20070;-79
2022/09/27 13:27:59;;;;;;;2.00;1.70;;;;;;;;;;12950379;22;20016;-77
2022/09/27 13:33:09;;;;;;;1.77;1.50;;;;;;;;;;12974432;22;20055;-79
2022/09/27 13:38:22;;;;;;;3.83;1.73;;;;;;;;;;12951697;22;20442;-81
2022/09/27 13:43:40;;;;;;;3.42;1.73;;;;;;;;;;12989988;22;20063;-80
2022/09/27 13:48:55;;;;;;;2.38;1.75;;;;;;;;;;13002692;22;20028;-80
2022/09/27 13:54:06;;;;;;;1.70;1.60;;;;;;;;;;13010120;22;20047;-80
2022/09/27 13:59:12;;;;;;;3.60;2.42;;;;;;;;;;12978723;22;20011;-83
2022/09/27 14:04:18;;;;;;;2.78;1.90;;;;;;;;;;12983843;22;20094;-80
2022/09/27 14:09:24;;;;;;;3.97;2.45;;;;;;;;;;12983552;22;20020;-79
2022/09/27 14:14:35;;;;;;;4.10;1.95;;;;;;;;;;12955506;22;20093;-79
2022/09/27 14:19:38;;;;;;;3.28;1.52;;;;;;;;;;12977679;22;20015;-79
2022/09/27 14:24:39;;;;;;;2.83;2.08;;;;;;;;;;12977355;22;20426;-80
2022/09/27 14:30:06;;;;;;;3.10;1.70;;;;;;;;;;12950758;22;20086;-79
2022/09/27 14:40:35;;;;;;;3.03;1.60;;;;;;;;;;12980490;22;20023;-79
2022/09/27 14:45:37;;;;;;;3.08;1.73;;;;;;;;;;12981578;22;20008;-76
2022/09/27 14:50:38;;;;;;;1.98;1.40;;;;;;;;;;12978196;22;20008;-80
2022/09/27 14:55:43;;;;;;;1.98;1.40;;;;;;;;;;12976043;22;20454;-78
2022/09/27 15:00:45;;;;;;;2.58;1.60;;;;;;;;;;12977658;22;20008;-78
2022/09/27 15:05:46;;;;;;;4.45;1.63;;;;;;;;;;12978567;22;20116;-79
2022/09/27 15:10:46;;;;;;;3.63;2.27;;;;;;;;;;12977729;22;20427;-80
2022/09/27 15:15:47;;;;;;;3.85;2.00;;;;;;;;;;12978132;22;20246;-79
2022/09/27 15:20:52;;;;;;;2.50;1.60;;;;;;;;;;12977657;22;20043;-78
2022/09/27 15:26:15;;;;;;;1.80;1.70;;;;;;;;;;12977736;22;20019;-79
2022/09/27 15:31:16;;;;;;;1.70;1.60;;;;;;;;;;12960144;22;20106;-78
2022/09/27 15:36:37;;;;;;;3.30;1.40;;;;;;;;;;12982487;22;20023;-78
2022/09/27 15:41:57;;;;;;;2.85;1.30;;;;;;;;;;12979341;22;20419;-76
2022/09/27 15:46:57;;;;;;;2.00;1.25;;;;;;;;;;12976905;22;20027;-79
2022/09/27 15:51:58;;;;;;;2.23;1.20;;;;;;;;;;12977770;22;20050;-79
2022/09/27 15:57:04;;;;;;;2.17;1.15;;;;;;;;;;12978384;22;20011;-79
2022/09/27 16:02:16;;;;;;;1.38;1.15;;;;;;;;;;12979192;22;20004;-79
2022/09/27 16:07:16;;;;;;;1.58;1.27;;;;;;;;;;12982225;22;20016;-81
2022/09/27 16:12:17;;;;;;;1.25;0.98;;;;;;;;;;12984039;22;20012;-79
2022/09/27 16:17:17;;;;;;;1.80;1.60;;;;;;;;;;12985147;22;20008;-81
2022/09/27 16:22:18;;;;;;;1.55;1.25;;;;;;;;;;12977360;22;20266;-81
2022/09/27 16:27:26;;;;;;;1.58;1.25;;;;;;;;;;12981256;22;20039;-81
2022/09/27 16:32:26;;;;;;;2.20;1.17;;;;;;;;;;12983320;22;20023;-78
2022/09/27 16:37:29;;;;;;;2.28;1.40;;;;;;;;;;12983436;22;20008;-79
2022/09/27 16:42:29;;;;;;;0.95;0.90;;;;;;;;;;12998500;22;20505;-80
2022/09/27 16:47:30;;;;;;;1.77;1.05;;;;;;;;;;13002122;22;20012;-77
2022/09/27 16:52:32;;;;;;;1.52;1.42;;;;;;;;;;12979323;22;20019;-79
2022/09/27 16:57:33;;;;;;;2.25;1.25;;;;;;;;;;12979136;22;20004;-79
2022/09/27 17:02:34;;;;;;;1.92;1.45;;;;;;;;;;12979984;22;20411;-80
2022/09/27 17:07:35;;;;;;;2.08;1.23;;;;;;;;;;12979197;22;20014;-78
2022/09/27 17:12:35;;;;;;;2.80;1.50;;;;;;;;;;12975012;22;20095;-78
2022/09/27 17:17:36;;;;;;;1.95;1.52;;;;;;;;;;12976610;22;20027;-77
2022/09/27 17:22:36;;;;;;;2.27;1.53;;;;;;;;;;12977612;22;20490;-77
2022/09/27 17:27:36;;;;;;;2.87;1.70;;;;;;;;;;12977891;22;20558;-78
2022/09/27 17:32:37;;;;;;;3.67;1.70;;;;;;;;;;12977372;22;20463;-79
2022/09/27 17:37:38;;;;;;;2.33;1.95;;;;;;;;;;12978050;22;20706;-79
2022/09/27 17:42:38;;;;;;;2.37;1.97;;;;;;;;;;12978349;22;20015;-76
2022/09/27 17:52:58;;;;;;;4.88;3.22;;;;;;;;;;12981263;22;20026;-78
2022/09/27 17:58:00;;;;;;;2.67;1.90;;;;;;;;;;12992924;22;20018;-80
2022/09/27 18:03:00;;;;;;;5.80;1.35;;;;;;;;;;13011166;22;20313;-80
2022/09/27 18:08:03;;;;;;;2.40;1.20;;;;;;;;;;13006353;22;20081;-82
2022/09/27 18:13:05;;;;;;;1.70;1.10;;;;;;;;;;12989924;22;20095;-79
2022/09/27 18:18:06;;;;;;;1.27;1.10;;;;;;;;;;12981098;22;20018;-79
2022/09/27 18:23:08;;;;;;;1.77;1.30;;;;;;;;;;12981658;22;20079;-79
2022/09/27 18:28:09;;;;;;;2.22;1.35;;;;;;;;;;12955960;22;20012;-78
2022/09/27 18:33:10;;;;;;;3.10;1.05;;;;;;;;;;12979128;22;20028;-79
2022/09/27 18:38:10;;;;;;;2.00;1.10;;;;;;;;;;12979993;22;20431;-78
2022/09/27 18:43:10;;;;;;;1.42;0.90;;;;;;;;;;12956916;22;20011;-80
2022/09/27 18:48:11;;;;;;;2.53;1.30;;;;;;;;;;12981241;22;20058;-77
2022/09/27 18:53:11;;;;;;;2.90;1.90;;;;;;;;;;12976985;22;20342;-80
2022/09/27 18:58:14;;;;;;;1.40;1.25;;;;;;;;;;12988353;22;20261;-81
2022/09/27 19:03:15;;;;;;;2.25;1.23;;;;;;;;;;12988644;22;20023;-83
2022/09/27 19:08:18;;;;;;;3.00;1.60;;;;;;;;;;12986749;22;20011;-81
2022/09/27 19:13:20;;;;;;;2.15;1.50;;;;;;;;;;12985320;22;20481;-81
2022/09/27 19:18:21;;;;;;;3.17;1.80;;;;;;;;;;12985981;22;20011;-81
2022/09/27 19:23:23;;;;;;;4.00;1.95;;;;;;;;;;12985513;22;20014;-81
2022/09/27 19:28:24;;;;;;;2.45;2.20;;;;;;;;;;12985452;22;20016;-83
2022/09/27 19:33:25;;;;;;;2.88;2.20;;;;;;;;;;12981079;22;20024;-82
2022/09/27 19:38:27;;;;;;;4.35;2.50;;;;;;;;;;12988495;22;20015;-82
2022/09/27 19:43:29;;;;;;;3.05;2.70;;;;;;;;;;12964430;22;20330;-82
2022/09/27 19:48:30;;;;;;;4.05;2.60;;;;;;;;;;12991451;22;20016;-83
2022/09/27 19:53:31;;;;;;;4.30;2.78;;;;;;;;;;12995203;22;20023;-84
2022/09/27 19:58:32;;;;;;;3.38;2.88;;;;;;;;;;12986973;22;20019;-82
2022/09/27 20:03:37;;;;;;;4.18;2.67;;;;;;;;;;12981585;22;20424;-81
2022/09/27 20:08:40;;;;;;;3.58;2.67;;;;;;;;;;12953383;22;20517;-81
2022/09/27 20:13:42;;;;;;;2.70;2.50;;;;;;;;;;12983901;22;20347;-80
2022/09/27 20:18:45;;;;;;;3.22;2.58;;;;;;;;;;12984309;22;20012;-82
2022/09/27 20:23:51;;;;;;;3.83;2.47;;;;;;;;;;12989844;22;20062;-83
2022/09/27 20:28:55;;;;;;;2.92;2.58;;;;;;;;;;13005747;22;20000;-82
2022/09/27 20:33:56;;;;;;;3.00;2.60;;;;;;;;;;12998309;22;20050;-79
2022/09/27 20:39:00;;;;;;;3.58;2.67;;;;;;;;;;12985921;22;20010;-79
2022/09/27 20:44:02;;;;;;;4.07;3.10;;;;;;;;;;12987163;22;20114;-79
2022/09/27 20:49:04;;;;;;;2.60;2.33;;;;;;;;;;12996957;22;20018;-80
2022/09/27 20:54:07;;;;;;;3.35;2.20;;;;;;;;;;12989945;22;20066;-79
2022/09/27 20:59:12;;;;;;;2.17;2.00;;;;;;;;;;12994143;22;20693;-80
2022/09/27 21:04:15;;;;;;;2.03;1.70;;;;;;;;;;12992343;22;20019;-82
2022/09/27 21:09:17;;;;;;;2.13;1.73;;;;;;;;;;13007831;22;20035;-81
2022/09/27 21:14:18;;;;;;;2.87;1.87;;;;;;;;;;13009564;22;20043;-81
2022/09/27 21:19:19;;;;;;;3.35;1.90;;;;;;;;;;13001427;22;20008;-82
2022/09/27 21:24:23;;;;;;;3.70;1.92;;;;;;;;;;13010086;22;20011;-83
2022/09/27 21:29:26;;;;;;;3.53;2.03;;;;;;;;;;12979614;22;20035;-83
2022/09/27 21:34:31;;;;;;;2.13;1.90;;;;;;;;;;13011065;22;20028;-84
2022/09/27 21:39:35;;;;;;;6.22;2.35;;;;;;;;;;13029144;22;20015;-81
2022/09/27 21:44:36;;;;;;;2.50;2.10;;;;;;;;;;13037176;22;20003;-82
2022/09/27 21:49:36;;;;;;;4.40;2.63;;;;;;;;;;13010913;22;20019;-84
2022/09/27 21:54:37;;;;;;;2.60;2.30;;;;;;;;;;13005039;22;20016;-80
2022/09/27 21:59:37;;;;;;;4.63;2.92;;;;;;;;;;12968809;22;20050;-82
2022/09/27 22:04:38;;;;;;;3.92;3.00;;;;;;;;;;12999596;22;20012;-85
2022/09/27 22:09:39;;;;;;;4.72;2.90;;;;;;;;;;12980722;22;20065;-84
2022/09/27 22:14:43;;;;;;;7.40;3.42;;;;;;;;;;13014261;22;20137;-85
2022/09/27 22:19:44;;;;;;;3.20;2.80;;;;;;;;;;13020473;22;20000;-83
2022/09/27 22:24:44;;;;;;;7.15;3.10;;;;;;;;;;12994400;22;20011;-84
2022/09/27 22:29:44;;;;;;;5.38;3.30;;;;;;;;;;13012642;22;19988;-81
2022/09/27 22:34:45;;;;;;;4.47;2.90;;;;;;;;;;13036792;22;20015;-81
2022/09/27 22:39:45;;;;;;;6.05;3.30;;;;;;;;;;13022235;22;20004;-83
2022/09/27 22:44:46;;;;;;;6.22;3.38;;;;;;;;;;12982973;22;20004;-80
2022/09/27 22:49:46;;;;;;;4.75;3.33;;;;;;;;;;13009450;22;20063;-79
2022/09/27 22:54:47;;;;;;;5.50;3.40;;;;;;;;;;13011290;22;20020;-80
2022/09/27 22:59:47;;;;;;;7.65;3.03;;;;;;;;;;12981143;22;20034;-79
2022/09/27 23:04:47;;;;;;;5.03;3.40;;;;;;;;;;12978128;22;20637;-79
2022/09/27 23:09:49;;;;;;;3.90;3.35;;;;;;;;;;12977856;22;20027;-79
2022/09/27 23:14:50;;;;;;;3.63;3.13;;;;;;;;;;12978119;22;20495;-78
2022/09/27 23:19:50;;;;;;;4.90;2.87;;;;;;;;;;12977876;22;20059;-77
2022/09/27 23:24:53;;;;;;;3.65;2.75;;;;;;;;;;12978099;22;20258;-81
2022/09/27 23:29:54;;;;;;;3.53;2.60;;;;;;;;;;12979804;22;20035;-83
2022/09/27 23:34:55;;;;;;;4.10;2.73;;;;;;;;;;12981403;22;20020;-81
2022/09/27 23:39:56;;;;;;;5.10;3.55;;;;;;;;;;12983886;22;20276;-83
2022/09/27 23:44:58;;;;;;;5.82;3.72;;;;;;;;;;13022739;22;20011;-81
2022/09/27 23:50:04;;;;;;;4.70;3.70;;;;;;;;;;13014698;22;19996;-82
2022/09/27 23:55:05;;;;;;;3.67;2.75;;;;;;;;;;13012996;22;20050;-81
